Cranford, New Jersey
Current Conditions -  °F | °C
As of 10:15 AM on Tuesday 21 Oct 2014 (Local Time) from KLDJ Reporting Station
Broken Clouds Broken Clouds  
Wind Chill: 63°   Ceiling: 6000
Heat Index: 63°   Visibility: 10mi
Dew Point: 51°   Wind: 3mph
Humidity: 65%   Direction: 360°N
Pressure: 29.91"   Gusts: NA
Location:  40.66°N, 74.3°W
Report Text: KLDJ 211415Z AUTO 36003KT 10SM BKN060 BKN075 17/11 A2991 RMK AO2 T01720105
Loading
Personal Weather Stations






























Interactive Weather Map
Tropical Storm Tracking
New forecast layout! Learn more

10-Day Weather Forecast

Advertisements
Track Severe Weather on mobile